sensor_id;sensor_type;location;lat;lon;timestamp;temperature;humidity
612;DHT22;293;53.888;11.464;2022-09-09T00:01:43;15.40;99.90
612;DHT22;293;53.888;11.464;2022-09-09T00:04:17;15.40;99.90
612;DHT22;293;53.888;11.464;2022-09-09T00:06:57;15.40;99.90
612;DHT22;293;53.888;11.464;2022-09-09T00:09:27;15.40;99.90
612;DHT22;293;53.888;11.464;2022-09-09T00:12:00;15.40;99.90
612;DHT22;293;53.888;11.464;2022-09-09T00:14:36;15.40;99.90
612;DHT22;293;53.888;11.464;2022-09-09T00:17:09;15.40;99.90
612;DHT22;293;53.888;11.464;2022-09-09T00:19:41;15.50;99.90
612;DHT22;293;53.888;11.464;2022-09-09T00:22:17;15.50;99.90
612;DHT22;293;53.888;11.464;2022-09-09T00:24:46;15.50;99.90
612;DHT22;293;53.888;11.464;2022-09-09T00:27:19;15.50;99.90
612;DHT22;293;53.888;11.464;2022-09-09T00:29:53;15.50;99.90
612;DHT22;293;53.888;11.464;2022-09-09T00:32:21;15.60;99.90
612;DHT22;293;53.888;11.464;2022-09-09T00:34:50;15.60;99.90
612;DHT22;293;53.888;11.464;2022-09-09T00:37:22;15.60;99.90
612;DHT22;293;53.888;11.464;2022-09-09T00:39:53;15.70;99.90
612;DHT22;293;53.888;11.464;2022-09-09T00:42:24;15.70;99.90
612;DHT22;293;53.888;11.464;2022-09-09T00:44:55;15.60;99.90
612;DHT22;293;53.888;11.464;2022-09-09T00:47:44;15.60;99.90
612;DHT22;293;53.888;11.464;2022-09-09T00:50:31;15.60;99.90
612;DHT22;293;53.888;11.464;2022-09-09T00:53:15;15.60;99.90
612;DHT22;293;53.888;11.464;2022-09-09T00:55:49;15.60;99.90
612;DHT22;293;53.888;11.464;2022-09-09T00:58:19;15.60;99.90
612;DHT22;293;53.888;11.464;2022-09-09T01:00:51;15.60;99.90
612;DHT22;293;53.888;11.464;2022-09-09T01:03:28;15.60;99.90
612;DHT22;293;53.888;11.464;2022-09-09T01:06:01;15.60;99.90
612;DHT22;293;53.888;11.464;2022-09-09T01:08:53;15.70;99.90
612;DHT22;293;53.888;11.464;2022-09-09T01:11:28;15.70;99.90
612;DHT22;293;53.888;11.464;2022-09-09T01:14:03;15.80;99.90
612;DHT22;293;53.888;11.464;2022-09-09T01:16:36;15.80;99.90
612;DHT22;293;53.888;11.464;2022-09-09T01:19:03;15.80;99.90
612;DHT22;293;53.888;11.464;2022-09-09T01:21:41;15.80;99.90
612;DHT22;293;53.888;11.464;2022-09-09T01:24:22;15.80;99.90
612;DHT22;293;53.888;11.464;2022-09-09T01:26:55;15.70;99.90
612;DHT22;293;53.888;11.464;2022-09-09T01:29:22;15.70;99.90
612;DHT22;293;53.888;11.464;2022-09-09T01:31:54;15.70;99.90
612;DHT22;293;53.888;11.464;2022-09-09T01:34:22;15.70;99.90
612;DHT22;293;53.888;11.464;2022-09-09T01:36:54;15.70;99.90
612;DHT22;293;53.888;11.464;2022-09-09T01:39:23;15.80;99.90
612;DHT22;293;53.888;11.464;2022-09-09T01:41:50;15.80;99.90
612;DHT22;293;53.888;11.464;2022-09-09T01:44:20;15.90;99.90
612;DHT22;293;53.888;11.464;2022-09-09T01:46:47;15.90;99.90
612;DHT22;293;53.888;11.464;2022-09-09T01:49:14;15.90;99.90
612;DHT22;293;53.888;11.464;2022-09-09T01:51:42;15.80;99.90
612;DHT22;293;53.888;11.464;2022-09-09T01:54:10;15.80;99.90
612;DHT22;293;53.888;11.464;2022-09-09T01:56:45;15.60;99.90
612;DHT22;293;53.888;11.464;2022-09-09T01:59:24;15.60;99.90
612;DHT22;293;53.888;11.464;2022-09-09T02:02:07;15.60;99.90
612;DHT22;293;53.888;11.464;2022-09-09T02:04:38;15.60;99.90
612;DHT22;293;53.888;11.464;2022-09-09T02:07:15;15.70;99.90
612;DHT22;293;53.888;11.464;2022-09-09T02:09:46;15.80;99.90
612;DHT22;293;53.888;11.464;2022-09-09T02:12:16;15.80;99.90
612;DHT22;293;53.888;11.464;2022-09-09T02:14:50;15.80;99.90
612;DHT22;293;53.888;11.464;2022-09-09T02:17:24;15.80;99.90
612;DHT22;293;53.888;11.464;2022-09-09T02:19:56;15.80;99.90
612;DHT22;293;53.888;11.464;2022-09-09T02:22:26;15.90;99.90
612;DHT22;293;53.888;11.464;2022-09-09T02:24:57;15.90;99.90
612;DHT22;293;53.888;11.464;2022-09-09T02:27:26;15.90;99.90
612;DHT22;293;53.888;11.464;2022-09-09T02:29:55;15.90;99.90
612;DHT22;293;53.888;11.464;2022-09-09T02:32:24;15.80;99.90
612;DHT22;293;53.888;11.464;2022-09-09T02:34:55;15.80;99.90
612;DHT22;293;53.888;11.464;2022-09-09T02:37:26;15.80;99.90
612;DHT22;293;53.888;11.464;2022-09-09T02:39:54;15.90;99.90
612;DHT22;293;53.888;11.464;2022-09-09T02:42:21;15.90;99.90
612;DHT22;293;53.888;11.464;2022-09-09T02:44:49;15.90;99.90
612;DHT22;293;53.888;11.464;2022-09-09T02:47:25;15.90;99.90
612;DHT22;293;53.888;11.464;2022-09-09T02:50:02;15.90;99.90
612;DHT22;293;53.888;11.464;2022-09-09T02:52:34;15.90;99.90
612;DHT22;293;53.888;11.464;2022-09-09T02:55:07;15.90;99.90
612;DHT22;293;53.888;11.464;2022-09-09T02:57:35;15.90;99.90
612;DHT22;293;53.888;11.464;2022-09-09T03:00:04;15.90;99.90
612;DHT22;293;53.888;11.464;2022-09-09T03:02:33;15.90;99.90
612;DHT22;293;53.888;11.464;2022-09-09T03:05:00;15.90;99.90
612;DHT22;293;53.888;11.464;2022-09-09T03:07:27;15.90;99.90
612;DHT22;293;53.888;11.464;2022-09-09T03:09:53;15.90;99.90
612;DHT22;293;53.888;11.464;2022-09-09T03:12:20;15.90;99.90
612;DHT22;293;53.888;11.464;2022-09-09T03:14:47;15.90;99.90
612;DHT22;293;53.888;11.464;2022-09-09T03:17:14;15.90;99.90
612;DHT22;293;53.888;11.464;2022-09-09T03:19:42;15.90;99.90
612;DHT22;293;53.888;11.464;2022-09-09T03:22:09;15.90;99.90
612;DHT22;293;53.888;11.464;2022-09-09T03:24:37;15.90;99.90
612;DHT22;293;53.888;11.464;2022-09-09T03:27:03;15.90;99.90
612;DHT22;293;53.888;11.464;2022-09-09T03:29:30;15.90;99.90
612;DHT22;293;53.888;11.464;2022-09-09T03:31:58;15.90;99.90
612;DHT22;293;53.888;11.464;2022-09-09T03:34:25;15.90;99.90
612;DHT22;293;53.888;11.464;2022-09-09T03:36:53;15.90;99.90
612;DHT22;293;53.888;11.464;2022-09-09T03:39:20;15.90;99.90
612;DHT22;293;53.888;11.464;2022-09-09T03:41:47;15.90;99.90
612;DHT22;293;53.888;11.464;2022-09-09T03:44:14;15.80;99.90
612;DHT22;293;53.888;11.464;2022-09-09T03:46:41;15.80;99.90
612;DHT22;293;53.888;11.464;2022-09-09T03:49:08;15.80;99.90
612;DHT22;293;53.888;11.464;2022-09-09T03:51:35;15.80;99.90
612;DHT22;293;53.888;11.464;2022-09-09T03:54:05;15.80;99.90
612;DHT22;293;53.888;11.464;2022-09-09T03:56:34;15.90;99.90
612;DHT22;293;53.888;11.464;2022-09-09T03:59:00;15.90;99.90
612;DHT22;293;53.888;11.464;2022-09-09T04:01:28;15.90;99.90
612;DHT22;293;53.888;11.464;2022-09-09T04:03:55;15.90;99.90
612;DHT22;293;53.888;11.464;2022-09-09T04:06:23;15.90;99.90
612;DHT22;293;53.888;11.464;2022-09-09T04:08:51;15.90;99.90
612;DHT22;293;53.888;11.464;2022-09-09T04:11:19;15.90;99.90
612;DHT22;293;53.888;11.464;2022-09-09T04:13:47;15.90;99.90
612;DHT22;293;53.888;11.464;2022-09-09T04:16:15;15.90;99.90
612;DHT22;293;53.888;11.464;2022-09-09T04:18:42;15.90;99.90
612;DHT22;293;53.888;11.464;2022-09-09T04:21:09;15.90;99.90
612;DHT22;293;53.888;11.464;2022-09-09T04:23:36;15.80;99.90
612;DHT22;293;53.888;11.464;2022-09-09T04:26:04;15.80;99.90
612;DHT22;293;53.888;11.464;2022-09-09T04:28:34;15.80;99.90
612;DHT22;293;53.888;11.464;2022-09-09T04:31:05;15.80;99.90
612;DHT22;293;53.888;11.464;2022-09-09T04:33:32;15.80;99.90
612;DHT22;293;53.888;11.464;2022-09-09T04:35:59;15.80;99.90
612;DHT22;293;53.888;11.464;2022-09-09T04:38:25;15.80;99.90
612;DHT22;293;53.888;11.464;2022-09-09T04:40:52;15.80;99.90
612;DHT22;293;53.888;11.464;2022-09-09T04:43:20;15.80;99.90
612;DHT22;293;53.888;11.464;2022-09-09T04:45:50;15.80;99.90
612;DHT22;293;53.888;11.464;2022-09-09T04:48:17;15.80;99.90
612;DHT22;293;53.888;11.464;2022-09-09T04:50:44;15.80;99.90
612;DHT22;293;53.888;11.464;2022-09-09T04:53:19;15.80;99.90
612;DHT22;293;53.888;11.464;2022-09-09T04:55:47;15.80;99.90
612;DHT22;293;53.888;11.464;2022-09-09T04:58:14;15.80;99.90
612;DHT22;293;53.888;11.464;2022-09-09T05:00:41;15.80;99.90
612;DHT22;293;53.888;11.464;2022-09-09T05:03:09;15.80;99.90
612;DHT22;293;53.888;11.464;2022-09-09T05:05:37;15.80;99.90
612;DHT22;293;53.888;11.464;2022-09-09T05:08:05;15.80;99.90
612;DHT22;293;53.888;11.464;2022-09-09T05:10:34;15.80;99.90
612;DHT22;293;53.888;11.464;2022-09-09T05:13:02;15.80;99.90
612;DHT22;293;53.888;11.464;2022-09-09T05:15:29;15.80;99.90
612;DHT22;293;53.888;11.464;2022-09-09T05:17:57;15.80;99.90
612;DHT22;293;53.888;11.464;2022-09-09T05:20:26;15.90;99.90
612;DHT22;293;53.888;11.464;2022-09-09T05:22:53;15.90;99.90
612;DHT22;293;53.888;11.464;2022-09-09T05:25:20;15.90;99.90
612;DHT22;293;53.888;11.464;2022-09-09T05:27:47;16.00;99.90
612;DHT22;293;53.888;11.464;2022-09-09T05:30:15;16.00;99.90
612;DHT22;293;53.888;11.464;2022-09-09T05:32:42;16.00;99.90
612;DHT22;293;53.888;11.464;2022-09-09T05:35:08;16.00;99.90
612;DHT22;293;53.888;11.464;2022-09-09T05:37:37;16.10;99.90
612;DHT22;293;53.888;11.464;2022-09-09T05:40:04;16.10;99.90
612;DHT22;293;53.888;11.464;2022-09-09T05:42:31;16.20;99.90
612;DHT22;293;53.888;11.464;2022-09-09T05:44:58;16.20;99.90
612;DHT22;293;53.888;11.464;2022-09-09T05:47:25;16.30;99.90
612;DHT22;293;53.888;11.464;2022-09-09T05:49:53;16.40;99.90
612;DHT22;293;53.888;11.464;2022-09-09T05:52:20;16.50;99.90
612;DHT22;293;53.888;11.464;2022-09-09T05:54:49;16.60;99.90
612;DHT22;293;53.888;11.464;2022-09-09T05:57:16;16.70;99.90
612;DHT22;293;53.888;11.464;2022-09-09T05:59:45;16.80;99.90
612;DHT22;293;53.888;11.464;2022-09-09T06:02:12;16.90;99.90
612;DHT22;293;53.888;11.464;2022-09-09T06:04:39;17.00;99.90
612;DHT22;293;53.888;11.464;2022-09-09T06:07:08;17.20;99.90
612;DHT22;293;53.888;11.464;2022-09-09T06:09:35;17.30;99.90
612;DHT22;293;53.888;11.464;2022-09-09T06:12:03;17.40;99.90
612;DHT22;293;53.888;11.464;2022-09-09T06:14:30;17.50;99.90
612;DHT22;293;53.888;11.464;2022-09-09T06:16:57;17.60;99.90
612;DHT22;293;53.888;11.464;2022-09-09T06:19:24;17.60;99.90
612;DHT22;293;53.888;11.464;2022-09-09T06:21:51;17.70;99.90
612;DHT22;293;53.888;11.464;2022-09-09T06:24:18;17.80;99.90
612;DHT22;293;53.888;11.464;2022-09-09T06:26:45;18.00;99.90
612;DHT22;293;53.888;11.464;2022-09-09T06:29:13;18.20;99.90
612;DHT22;293;53.888;11.464;2022-09-09T06:31:40;18.50;99.90
612;DHT22;293;53.888;11.464;2022-09-09T06:34:08;18.90;99.90
612;DHT22;293;53.888;11.464;2022-09-09T06:36:36;19.10;99.90
612;DHT22;293;53.888;11.464;2022-09-09T06:39:04;19.40;99.90
612;DHT22;293;53.888;11.464;2022-09-09T06:41:32;19.40;99.90
612;DHT22;293;53.888;11.464;2022-09-09T06:43:59;19.30;99.90
612;DHT22;293;53.888;11.464;2022-09-09T06:46:29;19.10;99.90
612;DHT22;293;53.888;11.464;2022-09-09T06:48:58;19.10;99.90
612;DHT22;293;53.888;11.464;2022-09-09T06:51:27;18.90;99.90
612;DHT22;293;53.888;11.464;2022-09-09T06:53:55;18.80;99.90
612;DHT22;293;53.888;11.464;2022-09-09T06:56:24;18.70;99.90
612;DHT22;293;53.888;11.464;2022-09-09T06:58:54;18.60;99.90
612;DHT22;293;53.888;11.464;2022-09-09T07:01:23;18.40;99.90
612;DHT22;293;53.888;11.464;2022-09-09T07:03:53;18.40;99.90
612;DHT22;293;53.888;11.464;2022-09-09T07:06:22;18.30;99.90
612;DHT22;293;53.888;11.464;2022-09-09T07:08:50;18.20;99.90
612;DHT22;293;53.888;11.464;2022-09-09T07:11:19;18.10;99.90
612;DHT22;293;53.888;11.464;2022-09-09T07:13:46;18.10;99.90
612;DHT22;293;53.888;11.464;2022-09-09T07:16:14;18.10;99.90
612;DHT22;293;53.888;11.464;2022-09-09T07:18:43;18.20;99.90
612;DHT22;293;53.888;11.464;2022-09-09T07:21:13;18.20;99.90
612;DHT22;293;53.888;11.464;2022-09-09T07:23:41;18.20;99.90
612;DHT22;293;53.888;11.464;2022-09-09T07:26:09;18.30;99.90
612;DHT22;293;53.888;11.464;2022-09-09T07:28:36;18.40;99.90
612;DHT22;293;53.888;11.464;2022-09-09T07:31:04;18.50;99.90
612;DHT22;293;53.888;11.464;2022-09-09T07:33:33;18.60;99.90
612;DHT22;293;53.888;11.464;2022-09-09T07:36:05;18.70;99.90
612;DHT22;293;53.888;11.464;2022-09-09T07:38:39;18.80;99.90
612;DHT22;293;53.888;11.464;2022-09-09T07:41:07;19.00;99.90
612;DHT22;293;53.888;11.464;2022-09-09T07:43:37;19.10;99.90
612;DHT22;293;53.888;11.464;2022-09-09T07:46:05;19.20;99.90
612;DHT22;293;53.888;11.464;2022-09-09T07:48:32;19.30;99.90
612;DHT22;293;53.888;11.464;2022-09-09T07:51:07;19.40;99.90
612;DHT22;293;53.888;11.464;2022-09-09T07:53:34;19.50;99.90
612;DHT22;293;53.888;11.464;2022-09-09T07:56:08;19.50;99.90
612;DHT22;293;53.888;11.464;2022-09-09T07:58:36;19.40;99.90
612;DHT22;293;53.888;11.464;2022-09-09T08:01:08;19.30;99.90
612;DHT22;293;53.888;11.464;2022-09-09T08:03:35;19.40;99.90
612;DHT22;293;53.888;11.464;2022-09-09T08:06:02;19.50;99.90
612;DHT22;293;53.888;11.464;2022-09-09T08:08:29;19.60;99.90
612;DHT22;293;53.888;11.464;2022-09-09T08:11:02;19.80;99.90
612;DHT22;293;53.888;11.464;2022-09-09T08:13:30;19.90;99.90
612;DHT22;293;53.888;11.464;2022-09-09T08:16:05;20.00;99.90
612;DHT22;293;53.888;11.464;2022-09-09T08:18:32;20.10;99.90
612;DHT22;293;53.888;11.464;2022-09-09T08:21:05;20.10;99.90
612;DHT22;293;53.888;11.464;2022-09-09T08:23:32;20.00;99.90
612;DHT22;293;53.888;11.464;2022-09-09T08:26:03;20.00;99.90
612;DHT22;293;53.888;11.464;2022-09-09T08:28:32;19.90;99.90
612;DHT22;293;53.888;11.464;2022-09-09T08:31:06;20.00;99.90
612;DHT22;293;53.888;11.464;2022-09-09T08:33:33;20.10;99.90
612;DHT22;293;53.888;11.464;2022-09-09T08:36:02;20.20;99.90
612;DHT22;293;53.888;11.464;2022-09-09T08:38:28;20.20;99.90
612;DHT22;293;53.888;11.464;2022-09-09T08:41:03;20.30;99.90
612;DHT22;293;53.888;11.464;2022-09-09T08:43:33;20.40;99.90
612;DHT22;293;53.888;11.464;2022-09-09T08:46:06;20.40;99.90
612;DHT22;293;53.888;11.464;2022-09-09T08:48:52;20.50;99.90
612;DHT22;293;53.888;11.464;2022-09-09T08:51:25;20.30;99.90
612;DHT22;293;53.888;11.464;2022-09-09T08:53:54;20.30;99.90
612;DHT22;293;53.888;11.464;2022-09-09T08:56:22;20.20;99.90
612;DHT22;293;53.888;11.464;2022-09-09T08:58:53;20.20;99.90
612;DHT22;293;53.888;11.464;2022-09-09T09:01:41;20.20;99.90
612;DHT22;293;53.888;11.464;2022-09-09T09:04:19;20.30;99.90
612;DHT22;293;53.888;11.464;2022-09-09T09:06:57;20.30;99.90
612;DHT22;293;53.888;11.464;2022-09-09T09:09:32;20.30;99.90
612;DHT22;293;53.888;11.464;2022-09-09T09:12:10;20.30;99.90
612;DHT22;293;53.888;11.464;2022-09-09T09:14:40;20.40;99.90
612;DHT22;293;53.888;11.464;2022-09-09T09:17:12;20.40;99.90
612;DHT22;293;53.888;11.464;2022-09-09T09:19:41;20.50;99.90
612;DHT22;293;53.888;11.464;2022-09-09T09:22:14;20.50;99.90
612;DHT22;293;53.888;11.464;2022-09-09T09:24:49;20.60;99.90
612;DHT22;293;53.888;11.464;2022-09-09T09:27:25;20.70;99.90
612;DHT22;293;53.888;11.464;2022-09-09T09:29:56;20.70;99.90
612;DHT22;293;53.888;11.464;2022-09-09T09:32:25;20.90;99.90
612;DHT22;293;53.888;11.464;2022-09-09T09:34:55;21.00;99.90
612;DHT22;293;53.888;11.464;2022-09-09T09:37:28;21.00;99.90
612;DHT22;293;53.888;11.464;2022-09-09T09:39:55;21.10;99.90
612;DHT22;293;53.888;11.464;2022-09-09T09:42:22;21.10;99.90
612;DHT22;293;53.888;11.464;2022-09-09T09:44:49;21.20;99.90
612;DHT22;293;53.888;11.464;2022-09-09T09:47:19;21.20;99.90
612;DHT22;293;53.888;11.464;2022-09-09T09:49:53;21.30;99.90
612;DHT22;293;53.888;11.464;2022-09-09T09:52:23;21.40;99.90
612;DHT22;293;53.888;11.464;2022-09-09T09:54:50;21.50;99.90
612;DHT22;293;53.888;11.464;2022-09-09T09:57:18;21.60;99.90
612;DHT22;293;53.888;11.464;2022-09-09T10:00:01;21.60;99.90
612;DHT22;293;53.888;11.464;2022-09-09T10:02:37;21.70;99.90
612;DHT22;293;53.888;11.464;2022-09-09T10:05:13;21.80;99.90
612;DHT22;293;53.888;11.464;2022-09-09T10:07:41;21.90;99.90
612;DHT22;293;53.888;11.464;2022-09-09T10:10:13;22.00;99.90
612;DHT22;293;53.888;11.464;2022-09-09T10:12:48;22.00;99.90
612;DHT22;293;53.888;11.464;2022-09-09T10:15:32;22.20;99.90
612;DHT22;293;53.888;11.464;2022-09-09T10:18:17;22.10;99.90
612;DHT22;293;53.888;11.464;2022-09-09T10:20:56;22.10;99.90
612;DHT22;293;53.888;11.464;2022-09-09T10:23:51;22.00;99.90
612;DHT22;293;53.888;11.464;2022-09-09T10:26:30;21.90;99.90
612;DHT22;293;53.888;11.464;2022-09-09T10:29:08;21.80;99.90
612;DHT22;293;53.888;11.464;2022-09-09T10:31:45;21.60;99.90
612;DHT22;293;53.888;11.464;2022-09-09T10:34:25;21.60;99.90
612;DHT22;293;53.888;11.464;2022-09-09T10:36:57;21.40;99.90
612;DHT22;293;53.888;11.464;2022-09-09T10:39:33;21.30;99.90
612;DHT22;293;53.888;11.464;2022-09-09T10:42:05;21.20;99.90
612;DHT22;293;53.888;11.464;2022-09-09T10:44:52;21.30;99.90
612;DHT22;293;53.888;11.464;2022-09-09T10:47:33;21.40;99.90
612;DHT22;293;53.888;11.464;2022-09-09T10:50:24;21.50;99.90
612;DHT22;293;53.888;11.464;2022-09-09T10:53:00;21.60;99.90
612;DHT22;293;53.888;11.464;2022-09-09T10:55:35;21.70;99.90
612;DHT22;293;53.888;11.464;2022-09-09T10:58:04;21.70;99.90
612;DHT22;293;53.888;11.464;2022-09-09T11:00:38;21.70;99.90
612;DHT22;293;53.888;11.464;2022-09-09T11:03:06;21.70;99.90
612;DHT22;293;53.888;11.464;2022-09-09T11:05:42;21.70;99.90
612;DHT22;293;53.888;11.464;2022-09-09T11:08:12;21.80;99.90
612;DHT22;293;53.888;11.464;2022-09-09T11:10:44;22.00;99.90
612;DHT22;293;53.888;11.464;2022-09-09T11:13:18;22.10;99.90
612;DHT22;293;53.888;11.464;2022-09-09T11:15:50;22.30;99.90
612;DHT22;293;53.888;11.464;2022-09-09T11:18:20;22.40;99.90
612;DHT22;293;53.888;11.464;2022-09-09T11:20:53;22.40;99.90
612;DHT22;293;53.888;11.464;2022-09-09T11:23:24;22.50;99.90
612;DHT22;293;53.888;11.464;2022-09-09T11:25:55;22.60;99.90
612;DHT22;293;53.888;11.464;2022-09-09T11:28:34;22.70;99.90
612;DHT22;293;53.888;11.464;2022-09-09T11:31:30;22.80;99.90
612;DHT22;293;53.888;11.464;2022-09-09T11:34:09;22.80;99.90
612;DHT22;293;53.888;11.464;2022-09-09T11:36:54;22.80;99.90
612;DHT22;293;53.888;11.464;2022-09-09T11:39:38;22.70;99.90
612;DHT22;293;53.888;11.464;2022-09-09T11:42:22;22.70;99.90
612;DHT22;293;53.888;11.464;2022-09-09T11:44:50;22.60;99.90
612;DHT22;293;53.888;11.464;2022-09-09T11:47:24;22.50;99.90
612;DHT22;293;53.888;11.464;2022-09-09T11:49:55;22.40;99.90
612;DHT22;293;53.888;11.464;2022-09-09T11:52:25;22.40;99.80
612;DHT22;293;53.888;11.464;2022-09-09T11:55:09;22.30;99.60
612;DHT22;293;53.888;11.464;2022-09-09T11:57:39;22.30;99.70
612;DHT22;293;53.888;11.464;2022-09-09T12:02:49;22.20;99.30
612;DHT22;293;53.888;11.464;2022-09-09T12:05:16;22.10;98.70
612;DHT22;293;53.888;11.464;2022-09-09T12:07:51;22.00;99.30
612;DHT22;293;53.888;11.464;2022-09-09T12:10:23;21.90;99.20
612;DHT22;293;53.888;11.464;2022-09-09T12:12:51;21.90;99.30
612;DHT22;293;53.888;11.464;2022-09-09T12:15:27;21.90;98.30
612;DHT22;293;53.888;11.464;2022-09-09T12:17:56;21.80;98.20
612;DHT22;293;53.888;11.464;2022-09-09T12:20:31;21.70;98.10
612;DHT22;293;53.888;11.464;2022-09-09T12:23:15;21.70;98.10
612;DHT22;293;53.888;11.464;2022-09-09T12:25:58;21.70;98.20
612;DHT22;293;53.888;11.464;2022-09-09T12:28:46;21.80;98.50
612;DHT22;293;53.888;11.464;2022-09-09T12:31:22;21.80;98.30
612;DHT22;293;53.888;11.464;2022-09-09T12:33:50;21.80;98.30
612;DHT22;293;53.888;11.464;2022-09-09T12:36:20;21.80;98.20
612;DHT22;293;53.888;11.464;2022-09-09T12:38:49;21.80;98.30
612;DHT22;293;53.888;11.464;2022-09-09T12:41:22;21.80;98.40
612;DHT22;293;53.888;11.464;2022-09-09T12:43:49;21.80;98.50
612;DHT22;293;53.888;11.464;2022-09-09T12:46:24;21.90;98.40
612;DHT22;293;53.888;11.464;2022-09-09T12:48:53;21.90;98.30
612;DHT22;293;53.888;11.464;2022-09-09T12:51:25;21.90;98.20
612;DHT22;293;53.888;11.464;2022-09-09T12:53:55;22.00;98.10
612;DHT22;293;53.888;11.464;2022-09-09T12:56:24;22.10;98.10
612;DHT22;293;53.888;11.464;2022-09-09T12:58:55;22.20;98.00
612;DHT22;293;53.888;11.464;2022-09-09T13:01:25;22.30;97.50
612;DHT22;293;53.888;11.464;2022-09-09T13:03:54;22.30;97.50
612;DHT22;293;53.888;11.464;2022-09-09T13:06:23;22.40;97.70
612;DHT22;293;53.888;11.464;2022-09-09T13:08:50;22.40;97.50
612;DHT22;293;53.888;11.464;2022-09-09T13:11:21;22.50;97.70
612;DHT22;293;53.888;11.464;2022-09-09T13:13:52;22.60;97.50
612;DHT22;293;53.888;11.464;2022-09-09T13:16:22;22.80;97.40
612;DHT22;293;53.888;11.464;2022-09-09T13:18:50;22.90;97.10
612;DHT22;293;53.888;11.464;2022-09-09T13:21:17;23.00;96.80
612;DHT22;293;53.888;11.464;2022-09-09T13:23:49;23.00;96.10
612;DHT22;293;53.888;11.464;2022-09-09T13:26:23;23.00;95.90
612;DHT22;293;53.888;11.464;2022-09-09T13:28:53;23.10;95.80
612;DHT22;293;53.888;11.464;2022-09-09T13:31:22;23.10;95.60
612;DHT22;293;53.888;11.464;2022-09-09T13:33:50;23.10;95.70
612;DHT22;293;53.888;11.464;2022-09-09T13:36:28;23.10;95.90
612;DHT22;293;53.888;11.464;2022-09-09T13:38:57;23.10;95.70
612;DHT22;293;53.888;11.464;2022-09-09T13:41:29;23.10;95.80
612;DHT22;293;53.888;11.464;2022-09-09T13:43:59;23.20;95.60
612;DHT22;293;53.888;11.464;2022-09-09T13:46:31;23.10;95.30
612;DHT22;293;53.888;11.464;2022-09-09T13:49:01;23.20;95.80
612;DHT22;293;53.888;11.464;2022-09-09T13:51:34;23.30;95.60
612;DHT22;293;53.888;11.464;2022-09-09T13:54:03;23.30;95.10
612;DHT22;293;53.888;11.464;2022-09-09T13:56:33;23.50;95.10
612;DHT22;293;53.888;11.464;2022-09-09T13:58:59;23.60;95.00
612;DHT22;293;53.888;11.464;2022-09-09T14:01:26;23.60;94.50
612;DHT22;293;53.888;11.464;2022-09-09T14:03:54;23.70;94.20
612;DHT22;293;53.888;11.464;2022-09-09T14:06:21;23.70;94.30
612;DHT22;293;53.888;11.464;2022-09-09T14:08:49;23.70;94.20
612;DHT22;293;53.888;11.464;2022-09-09T14:11:17;23.60;94.10
612;DHT22;293;53.888;11.464;2022-09-09T14:13:46;23.60;94.20
612;DHT22;293;53.888;11.464;2022-09-09T14:16:12;23.60;94.20
612;DHT22;293;53.888;11.464;2022-09-09T14:18:39;23.50;93.90
612;DHT22;293;53.888;11.464;2022-09-09T14:21:06;23.40;94.10
612;DHT22;293;53.888;11.464;2022-09-09T14:23:34;23.30;94.40
612;DHT22;293;53.888;11.464;2022-09-09T14:26:01;23.20;94.70
612;DHT22;293;53.888;11.464;2022-09-09T14:28:28;23.20;94.90
612;DHT22;293;53.888;11.464;2022-09-09T14:30:59;23.30;94.90
612;DHT22;293;53.888;11.464;2022-09-09T14:33:26;23.30;94.70
612;DHT22;293;53.888;11.464;2022-09-09T14:35:56;23.40;94.70
612;DHT22;293;53.888;11.464;2022-09-09T14:38:24;23.40;94.80
612;DHT22;293;53.888;11.464;2022-09-09T14:40:51;23.50;94.80
612;DHT22;293;53.888;11.464;2022-09-09T14:43:18;23.60;94.20
612;DHT22;293;53.888;11.464;2022-09-09T14:45:45;23.70;94.40
612;DHT22;293;53.888;11.464;2022-09-09T14:48:14;23.80;94.30
612;DHT22;293;53.888;11.464;2022-09-09T14:50:41;23.90;94.30
612;DHT22;293;53.888;11.464;2022-09-09T14:53:08;23.90;94.10
612;DHT22;293;53.888;11.464;2022-09-09T14:55:35;23.90;94.10
612;DHT22;293;53.888;11.464;2022-09-09T14:58:02;23.90;94.00
612;DHT22;293;53.888;11.464;2022-09-09T15:00:29;23.90;94.20
612;DHT22;293;53.888;11.464;2022-09-09T15:02:56;24.00;94.00
612;DHT22;293;53.888;11.464;2022-09-09T15:05:24;23.90;94.00
612;DHT22;293;53.888;11.464;2022-09-09T15:07:51;23.90;94.20
612;DHT22;293;53.888;11.464;2022-09-09T15:10:17;23.90;93.90
612;DHT22;293;53.888;11.464;2022-09-09T15:12:44;23.80;94.30
612;DHT22;293;53.888;11.464;2022-09-09T15:15:11;23.80;95.40
612;DHT22;293;53.888;11.464;2022-09-09T15:17:39;23.70;95.80
612;DHT22;293;53.888;11.464;2022-09-09T15:20:06;23.60;95.70
612;DHT22;293;53.888;11.464;2022-09-09T15:22:35;23.50;95.70
612;DHT22;293;53.888;11.464;2022-09-09T15:25:03;23.30;96.10
612;DHT22;293;53.888;11.464;2022-09-09T15:27:31;23.20;96.40
612;DHT22;293;53.888;11.464;2022-09-09T15:29:59;23.10;96.60
612;DHT22;293;53.888;11.464;2022-09-09T15:32:26;23.00;96.80
612;DHT22;293;53.888;11.464;2022-09-09T15:34:53;22.90;97.10
612;DHT22;293;53.888;11.464;2022-09-09T15:37:20;22.90;97.30
612;DHT22;293;53.888;11.464;2022-09-09T15:39:48;22.80;97.40
612;DHT22;293;53.888;11.464;2022-09-09T15:42:16;22.70;97.60
612;DHT22;293;53.888;11.464;2022-09-09T15:44:42;22.60;98.00
612;DHT22;293;53.888;11.464;2022-09-09T15:47:11;22.60;98.10
612;DHT22;293;53.888;11.464;2022-09-09T15:49:38;22.60;98.20
612;DHT22;293;53.888;11.464;2022-09-09T15:52:08;22.50;98.30
612;DHT22;293;53.888;11.464;2022-09-09T15:54:36;22.30;98.10
612;DHT22;293;53.888;11.464;2022-09-09T15:57:07;22.20;98.30
612;DHT22;293;53.888;11.464;2022-09-09T15:59:35;22.10;98.60
612;DHT22;293;53.888;11.464;2022-09-09T16:02:02;22.00;98.80
612;DHT22;293;53.888;11.464;2022-09-09T16:04:29;21.80;99.00
612;DHT22;293;53.888;11.464;2022-09-09T16:06:57;21.70;99.40
612;DHT22;293;53.888;11.464;2022-09-09T16:09:25;21.60;99.50
612;DHT22;293;53.888;11.464;2022-09-09T16:11:52;21.50;99.40
612;DHT22;293;53.888;11.464;2022-09-09T16:14:20;21.30;99.10
612;DHT22;293;53.888;11.464;2022-09-09T16:16:48;21.20;99.30
612;DHT22;293;53.888;11.464;2022-09-09T16:19:15;21.00;99.00
612;DHT22;293;53.888;11.464;2022-09-09T16:21:43;21.00;98.90
612;DHT22;293;53.888;11.464;2022-09-09T16:24:12;20.80;98.50
612;DHT22;293;53.888;11.464;2022-09-09T16:26:40;20.80;98.90
612;DHT22;293;53.888;11.464;2022-09-09T16:29:08;20.70;98.90
612;DHT22;293;53.888;11.464;2022-09-09T16:31:37;20.60;98.90
612;DHT22;293;53.888;11.464;2022-09-09T16:34:04;20.50;99.30
612;DHT22;293;53.888;11.464;2022-09-09T16:36:32;20.50;99.50
612;DHT22;293;53.888;11.464;2022-09-09T16:39:02;20.40;99.80
612;DHT22;293;53.888;11.464;2022-09-09T16:41:30;20.30;99.90